Aviation Digital Data Service (ADDS)

Output produced by METARs form (0602 UTC 24 May 2017)
found at http://aviationweather.gov/adds/metars/
 
KARA 240520Z 2406/2506 30008KT P6SM VCSH SCT030 BKN060 
     TEMPO 2406/2409 VRB12G20KT 4SM SHRA BR BKN035 
     FM240900 32010KT P6SM SCT030 BKN100 
     FM241400 32015G21KT P6SM SKC 
     FM250100 31008KT P6SM SKC